sensor_id;sensor_type;location;lat;lon;timestamp;P1;durP1;ratioP1;P2;durP2;ratioP2
45836;SDS011;31548;51.420;-0.040;2022-10-31T00:01:32;8.20;;;0.90;;
45836;SDS011;31548;51.420;-0.040;2022-10-31T00:04:02;5.78;;;0.55;;
45836;SDS011;31548;51.420;-0.040;2022-10-31T00:06:30;14.18;;;1.02;;
45836;SDS011;31548;51.420;-0.040;2022-10-31T00:09:00;6.95;;;0.80;;
45836;SDS011;31548;51.420;-0.040;2022-10-31T00:11:30;8.90;;;0.70;;
45836;SDS011;31548;51.420;-0.040;2022-10-31T00:13:58;8.30;;;0.73;;
45836;SDS011;31548;51.420;-0.040;2022-10-31T00:16:27;3.15;;;0.60;;
45836;SDS011;31548;51.420;-0.040;2022-10-31T00:18:56;7.85;;;0.80;;
45836;SDS011;31548;51.420;-0.040;2022-10-31T00:21:25;4.72;;;0.80;;
45836;SDS011;31548;51.420;-0.040;2022-10-31T00:23:54;5.25;;;0.80;;
45836;SDS011;31548;51.420;-0.040;2022-10-31T00:26:21;6.88;;;0.88;;
45836;SDS011;31548;51.420;-0.040;2022-10-31T00:28:49;6.47;;;1.00;;
45836;SDS011;31548;51.420;-0.040;2022-10-31T00:31:18;4.53;;;0.55;;
45836;SDS011;31548;51.420;-0.040;2022-10-31T00:33:46;3.90;;;0.63;;
45836;SDS011;31548;51.420;-0.040;2022-10-31T00:36:17;9.73;;;0.45;;
45836;SDS011;31548;51.420;-0.040;2022-10-31T00:38:46;4.78;;;0.50;;
45836;SDS011;31548;51.420;-0.040;2022-10-31T00:41:15;7.18;;;0.60;;
45836;SDS011;31548;51.420;-0.040;2022-10-31T00:43:44;9.27;;;0.60;;
45836;SDS011;31548;51.420;-0.040;2022-10-31T00:46:12;3.55;;;0.70;;
45836;SDS011;31548;51.420;-0.040;2022-10-31T00:48:41;5.63;;;0.57;;
45836;SDS011;31548;51.420;-0.040;2022-10-31T00:51:10;5.30;;;0.50;;
45836;SDS011;31548;51.420;-0.040;2022-10-31T00:53:39;3.10;;;0.50;;
45836;SDS011;31548;51.420;-0.040;2022-10-31T00:56:07;4.93;;;0.75;;
45836;SDS011;31548;51.420;-0.040;2022-10-31T00:58:35;6.32;;;1.10;;
45836;SDS011;31548;51.420;-0.040;2022-10-31T01:01:03;4.55;;;0.70;;
45836;SDS011;31548;51.420;-0.040;2022-10-31T01:03:34;5.65;;;0.70;;
45836;SDS011;31548;51.420;-0.040;2022-10-31T01:06:04;4.90;;;0.60;;
45836;SDS011;31548;51.420;-0.040;2022-10-31T01:08:33;4.60;;;0.70;;
45836;SDS011;31548;51.420;-0.040;2022-10-31T01:11:05;2.17;;;0.40;;
45836;SDS011;31548;51.420;-0.040;2022-10-31T01:13:39;3.75;;;0.50;;
45836;SDS011;31548;51.420;-0.040;2022-10-31T01:16:10;3.53;;;0.50;;
45836;SDS011;31548;51.420;-0.040;2022-10-31T01:18:39;5.72;;;0.55;;
45836;SDS011;31548;51.420;-0.040;2022-10-31T01:21:09;5.97;;;0.50;;
45836;SDS011;31548;51.420;-0.040;2022-10-31T01:23:41;4.97;;;0.80;;
45836;SDS011;31548;51.420;-0.040;2022-10-31T01:26:19;2.33;;;0.50;;
45836;SDS011;31548;51.420;-0.040;2022-10-31T01:28:56;5.78;;;0.52;;
45836;SDS011;31548;51.420;-0.040;2022-10-31T01:31:31;3.45;;;0.50;;
45836;SDS011;31548;51.420;-0.040;2022-10-31T01:34:01;2.50;;;0.55;;
45836;SDS011;31548;51.420;-0.040;2022-10-31T01:36:31;5.20;;;0.60;;
45836;SDS011;31548;51.420;-0.040;2022-10-31T01:39:04;5.05;;;0.50;;
45836;SDS011;31548;51.420;-0.040;2022-10-31T01:41:37;3.55;;;0.60;;
45836;SDS011;31548;51.420;-0.040;2022-10-31T01:49:42;4.90;;;0.50;;
45836;SDS011;31548;51.420;-0.040;2022-10-31T01:52:16;4.00;;;0.70;;
45836;SDS011;31548;51.420;-0.040;2022-10-31T01:54:53;4.22;;;0.45;;
45836;SDS011;31548;51.420;-0.040;2022-10-31T01:57:26;6.07;;;0.70;;
45836;SDS011;31548;51.420;-0.040;2022-10-31T01:59:57;2.67;;;0.38;;
45836;SDS011;31548;51.420;-0.040;2022-10-31T02:02:39;3.22;;;0.50;;
45836;SDS011;31548;51.420;-0.040;2022-10-31T02:05:09;2.80;;;0.47;;
45836;SDS011;31548;51.420;-0.040;2022-10-31T02:08:02;3.15;;;0.40;;
45836;SDS011;31548;51.420;-0.040;2022-10-31T02:10:31;2.55;;;0.43;;
45836;SDS011;31548;51.420;-0.040;2022-10-31T02:13:01;3.03;;;0.50;;
45836;SDS011;31548;51.420;-0.040;2022-10-31T02:15:31;7.15;;;0.73;;
45836;SDS011;31548;51.420;-0.040;2022-10-31T02:17:59;6.65;;;0.40;;
45836;SDS011;31548;51.420;-0.040;2022-10-31T02:20:33;7.03;;;0.60;;
45836;SDS011;31548;51.420;-0.040;2022-10-31T02:37:26;2.55;;;0.52;;
45836;SDS011;31548;51.420;-0.040;2022-10-31T02:40:04;9.65;;;0.60;;
45836;SDS011;31548;51.420;-0.040;2022-10-31T02:43:06;2.50;;;0.55;;
45836;SDS011;31548;51.420;-0.040;2022-10-31T02:48:23;5.22;;;0.57;;
45836;SDS011;31548;51.420;-0.040;2022-10-31T02:50:59;0.95;;;0.40;;
45836;SDS011;31548;51.420;-0.040;2022-10-31T02:53:33;1.73;;;0.50;;
45836;SDS011;31548;51.420;-0.040;2022-10-31T02:56:04;5.72;;;0.70;;
45836;SDS011;31548;51.420;-0.040;2022-10-31T02:58:49;3.33;;;0.50;;
45836;SDS011;31548;51.420;-0.040;2022-10-31T03:07:08;5.00;;;0.50;;
45836;SDS011;31548;51.420;-0.040;2022-10-31T03:12:38;3.50;;;0.47;;
45836;SDS011;31548;51.420;-0.040;2022-10-31T03:15:21;3.42;;;0.52;;
45836;SDS011;31548;51.420;-0.040;2022-10-31T03:18:07;2.88;;;0.50;;
45836;SDS011;31548;51.420;-0.040;2022-10-31T03:21:04;2.67;;;0.35;;
45836;SDS011;31548;51.420;-0.040;2022-10-31T03:24:03;3.90;;;0.60;;
45836;SDS011;31548;51.420;-0.040;2022-10-31T03:26:38;2.03;;;0.65;;
45836;SDS011;31548;51.420;-0.040;2022-10-31T03:29:11;1.83;;;0.40;;
45836;SDS011;31548;51.420;-0.040;2022-10-31T03:34:29;6.75;;;0.70;;
45836;SDS011;31548;51.420;-0.040;2022-10-31T03:36:59;1.83;;;0.40;;
45836;SDS011;31548;51.420;-0.040;2022-10-31T03:39:31;5.15;;;0.47;;
45836;SDS011;31548;51.420;-0.040;2022-10-31T03:42:05;2.88;;;0.40;;
45836;SDS011;31548;51.420;-0.040;2022-10-31T03:44:39;4.18;;;0.90;;
45836;SDS011;31548;51.420;-0.040;2022-10-31T03:47:11;4.60;;;0.50;;
45836;SDS011;31548;51.420;-0.040;2022-10-31T03:49:40;3.63;;;0.50;;
45836;SDS011;31548;51.420;-0.040;2022-10-31T03:54:45;5.38;;;0.50;;
45836;SDS011;31548;51.420;-0.040;2022-10-31T04:00:06;2.88;;;0.45;;
45836;SDS011;31548;51.420;-0.040;2022-10-31T04:02:47;4.00;;;0.57;;
45836;SDS011;31548;51.420;-0.040;2022-10-31T04:05:25;2.45;;;0.35;;
45836;SDS011;31548;51.420;-0.040;2022-10-31T04:07:58;1.33;;;0.32;;
45836;SDS011;31548;51.420;-0.040;2022-10-31T04:10:30;3.70;;;0.52;;
45836;SDS011;31548;51.420;-0.040;2022-10-31T04:13:01;5.60;;;0.55;;
45836;SDS011;31548;51.420;-0.040;2022-10-31T04:15:39;1.58;;;0.40;;
45836;SDS011;31548;51.420;-0.040;2022-10-31T04:18:10;2.13;;;0.50;;
45836;SDS011;31548;51.420;-0.040;2022-10-31T04:20:40;2.53;;;0.43;;
45836;SDS011;31548;51.420;-0.040;2022-10-31T04:23:16;3.70;;;0.40;;
45836;SDS011;31548;51.420;-0.040;2022-10-31T04:28:24;3.05;;;0.40;;
45836;SDS011;31548;51.420;-0.040;2022-10-31T04:30:52;2.80;;;0.52;;
45836;SDS011;31548;51.420;-0.040;2022-10-31T04:33:21;2.78;;;0.57;;
45836;SDS011;31548;51.420;-0.040;2022-10-31T04:35:50;3.17;;;0.88;;
45836;SDS011;31548;51.420;-0.040;2022-10-31T04:38:18;4.32;;;0.60;;
45836;SDS011;31548;51.420;-0.040;2022-10-31T04:40:47;4.00;;;0.40;;
45836;SDS011;31548;51.420;-0.040;2022-10-31T04:43:34;4.90;;;0.40;;
45836;SDS011;31548;51.420;-0.040;2022-10-31T04:46:03;4.57;;;0.40;;
45836;SDS011;31548;51.420;-0.040;2022-10-31T04:48:31;2.42;;;0.32;;
45836;SDS011;31548;51.420;-0.040;2022-10-31T04:51:02;4.75;;;0.55;;
45836;SDS011;31548;51.420;-0.040;2022-10-31T04:53:31;7.90;;;0.60;;
45836;SDS011;31548;51.420;-0.040;2022-10-31T04:56:20;5.82;;;1.65;;
45836;SDS011;31548;51.420;-0.040;2022-10-31T04:58:52;5.88;;;0.65;;
45836;SDS011;31548;51.420;-0.040;2022-10-31T05:01:21;4.55;;;0.40;;
45836;SDS011;31548;51.420;-0.040;2022-10-31T05:03:50;3.83;;;0.40;;
45836;SDS011;31548;51.420;-0.040;2022-10-31T05:06:18;6.25;;;0.50;;
45836;SDS011;31548;51.420;-0.040;2022-10-31T05:08:46;7.18;;;0.65;;
45836;SDS011;31548;51.420;-0.040;2022-10-31T05:11:14;2.67;;;0.40;;
45836;SDS011;31548;51.420;-0.040;2022-10-31T05:13:43;5.82;;;0.47;;
45836;SDS011;31548;51.420;-0.040;2022-10-31T05:16:11;10.32;;;1.23;;
45836;SDS011;31548;51.420;-0.040;2022-10-31T05:18:39;6.63;;;0.40;;
45836;SDS011;31548;51.420;-0.040;2022-10-31T05:21:26;4.10;;;0.40;;
45836;SDS011;31548;51.420;-0.040;2022-10-31T05:23:58;3.38;;;0.50;;
45836;SDS011;31548;51.420;-0.040;2022-10-31T05:26:27;8.15;;;0.43;;
45836;SDS011;31548;51.420;-0.040;2022-10-31T05:28:56;4.25;;;0.40;;
45836;SDS011;31548;51.420;-0.040;2022-10-31T05:31:24;4.70;;;1.35;;
45836;SDS011;31548;51.420;-0.040;2022-10-31T05:33:53;2.78;;;0.40;;
45836;SDS011;31548;51.420;-0.040;2022-10-31T05:36:39;4.03;;;0.82;;
45836;SDS011;31548;51.420;-0.040;2022-10-31T05:39:15;5.55;;;0.40;;
45836;SDS011;31548;51.420;-0.040;2022-10-31T05:41:49;6.35;;;1.17;;
45836;SDS011;31548;51.420;-0.040;2022-10-31T05:44:24;6.90;;;0.65;;
45836;SDS011;31548;51.420;-0.040;2022-10-31T05:47:12;5.95;;;0.50;;
45836;SDS011;31548;51.420;-0.040;2022-10-31T05:49:59;6.53;;;0.60;;
45836;SDS011;31548;51.420;-0.040;2022-10-31T05:53:03;3.20;;;0.32;;
45836;SDS011;31548;51.420;-0.040;2022-10-31T05:55:35;6.25;;;0.63;;
45836;SDS011;31548;51.420;-0.040;2022-10-31T05:58:10;7.03;;;0.60;;
45836;SDS011;31548;51.420;-0.040;2022-10-31T06:00:41;7.95;;;0.50;;
45836;SDS011;31548;51.420;-0.040;2022-10-31T06:03:11;5.40;;;0.47;;
45836;SDS011;31548;51.420;-0.040;2022-10-31T06:05:46;4.38;;;0.95;;
45836;SDS011;31548;51.420;-0.040;2022-10-31T06:08:23;4.00;;;0.85;;
45836;SDS011;31548;51.420;-0.040;2022-10-31T06:10:53;5.95;;;0.73;;
45836;SDS011;31548;51.420;-0.040;2022-10-31T06:13:41;2.40;;;0.40;;
45836;SDS011;31548;51.420;-0.040;2022-10-31T06:16:16;5.65;;;0.55;;
45836;SDS011;31548;51.420;-0.040;2022-10-31T06:18:45;7.05;;;0.55;;
45836;SDS011;31548;51.420;-0.040;2022-10-31T06:21:14;8.65;;;0.60;;
45836;SDS011;31548;51.420;-0.040;2022-10-31T06:23:47;4.32;;;0.40;;
45836;SDS011;31548;51.420;-0.040;2022-10-31T06:26:44;7.53;;;0.60;;
45836;SDS011;31548;51.420;-0.040;2022-10-31T06:29:12;3.17;;;0.50;;
45836;SDS011;31548;51.420;-0.040;2022-10-31T06:31:56;5.95;;;0.50;;
45836;SDS011;31548;51.420;-0.040;2022-10-31T06:34:24;4.68;;;0.50;;
45836;SDS011;31548;51.420;-0.040;2022-10-31T06:36:52;7.25;;;0.60;;
45836;SDS011;31548;51.420;-0.040;2022-10-31T06:39:23;3.15;;;0.50;;
45836;SDS011;31548;51.420;-0.040;2022-10-31T06:41:52;2.65;;;0.45;;
45836;SDS011;31548;51.420;-0.040;2022-10-31T06:44:21;4.13;;;0.47;;
45836;SDS011;31548;51.420;-0.040;2022-10-31T06:46:58;7.18;;;0.60;;
45836;SDS011;31548;51.420;-0.040;2022-10-31T06:49:48;4.28;;;0.50;;
45836;SDS011;31548;51.420;-0.040;2022-10-31T06:52:21;2.03;;;0.47;;
45836;SDS011;31548;51.420;-0.040;2022-10-31T06:54:51;3.38;;;0.60;;
45836;SDS011;31548;51.420;-0.040;2022-10-31T06:57:20;3.15;;;0.45;;
45836;SDS011;31548;51.420;-0.040;2022-10-31T06:59:48;3.38;;;0.50;;
45836;SDS011;31548;51.420;-0.040;2022-10-31T07:02:20;4.07;;;0.57;;
45836;SDS011;31548;51.420;-0.040;2022-10-31T07:04:49;12.30;;;0.75;;
45836;SDS011;31548;51.420;-0.040;2022-10-31T07:07:17;4.03;;;0.65;;
45836;SDS011;31548;51.420;-0.040;2022-10-31T07:09:49;3.72;;;0.40;;
45836;SDS011;31548;51.420;-0.040;2022-10-31T07:12:23;13.80;;;0.57;;
45836;SDS011;31548;51.420;-0.040;2022-10-31T07:14:56;8.53;;;1.10;;
45836;SDS011;31548;51.420;-0.040;2022-10-31T07:17:24;3.38;;;0.68;;
45836;SDS011;31548;51.420;-0.040;2022-10-31T07:19:58;5.18;;;0.60;;
45836;SDS011;31548;51.420;-0.040;2022-10-31T07:22:34;5.13;;;0.70;;
45836;SDS011;31548;51.420;-0.040;2022-10-31T07:25:05;2.83;;;0.55;;
45836;SDS011;31548;51.420;-0.040;2022-10-31T07:27:52;6.18;;;1.40;;
45836;SDS011;31548;51.420;-0.040;2022-10-31T07:30:20;12.60;;;1.00;;
45836;SDS011;31548;51.420;-0.040;2022-10-31T07:32:52;5.13;;;0.70;;
45836;SDS011;31548;51.420;-0.040;2022-10-31T07:35:22;4.13;;;0.60;;
45836;SDS011;31548;51.420;-0.040;2022-10-31T07:37:55;3.70;;;1.10;;
45836;SDS011;31548;51.420;-0.040;2022-10-31T07:40:24;4.00;;;1.27;;
45836;SDS011;31548;51.420;-0.040;2022-10-31T07:42:53;5.18;;;0.70;;
45836;SDS011;31548;51.420;-0.040;2022-10-31T07:45:39;3.38;;;0.80;;
45836;SDS011;31548;51.420;-0.040;2022-10-31T07:48:33;4.90;;;1.10;;
45836;SDS011;31548;51.420;-0.040;2022-10-31T07:51:20;3.17;;;0.90;;
45836;SDS011;31548;51.420;-0.040;2022-10-31T07:54:07;5.82;;;1.00;;
45836;SDS011;31548;51.420;-0.040;2022-10-31T07:56:36;3.55;;;1.02;;
45836;SDS011;31548;51.420;-0.040;2022-10-31T07:59:05;9.15;;;1.00;;
45836;SDS011;31548;51.420;-0.040;2022-10-31T08:01:33;10.10;;;0.98;;
45836;SDS011;31548;51.420;-0.040;2022-10-31T08:04:20;8.55;;;3.45;;
45836;SDS011;31548;51.420;-0.040;2022-10-31T08:07:06;16.92;;;4.82;;
45836;SDS011;31548;51.420;-0.040;2022-10-31T08:09:36;7.57;;;3.00;;
45836;SDS011;31548;51.420;-0.040;2022-10-31T08:12:15;10.68;;;2.35;;
45836;SDS011;31548;51.420;-0.040;2022-10-31T08:14:44;11.32;;;1.88;;
45836;SDS011;31548;51.420;-0.040;2022-10-31T08:17:14;8.88;;;1.60;;
45836;SDS011;31548;51.420;-0.040;2022-10-31T08:19:53;7.05;;;1.40;;
45836;SDS011;31548;51.420;-0.040;2022-10-31T08:22:26;4.15;;;1.10;;
45836;SDS011;31548;51.420;-0.040;2022-10-31T08:24:54;4.00;;;1.00;;
45836;SDS011;31548;51.420;-0.040;2022-10-31T08:27:22;6.95;;;0.80;;
45836;SDS011;31548;51.420;-0.040;2022-10-31T08:29:50;7.90;;;0.90;;
45836;SDS011;31548;51.420;-0.040;2022-10-31T08:32:18;5.82;;;0.80;;
45836;SDS011;31548;51.420;-0.040;2022-10-31T08:35:05;9.32;;;0.90;;
45836;SDS011;31548;51.420;-0.040;2022-10-31T08:37:56;12.48;;;1.52;;
45836;SDS011;31548;51.420;-0.040;2022-10-31T08:40:26;7.32;;;1.20;;
45836;SDS011;31548;51.420;-0.040;2022-10-31T08:43:03;7.28;;;0.75;;
45836;SDS011;31548;51.420;-0.040;2022-10-31T08:45:34;4.90;;;0.73;;
45836;SDS011;31548;51.420;-0.040;2022-10-31T08:48:06;3.95;;;0.75;;
45836;SDS011;31548;51.420;-0.040;2022-10-31T08:50:37;7.93;;;0.90;;
45836;SDS011;31548;51.420;-0.040;2022-10-31T08:53:07;6.07;;;0.50;;
45836;SDS011;31548;51.420;-0.040;2022-10-31T08:55:39;5.30;;;0.82;;
45836;SDS011;31548;51.420;-0.040;2022-10-31T08:58:22;9.88;;;0.82;;
45836;SDS011;31548;51.420;-0.040;2022-10-31T09:00:55;8.52;;;0.70;;
45836;SDS011;31548;51.420;-0.040;2022-10-31T09:03:27;4.57;;;0.77;;
45836;SDS011;31548;51.420;-0.040;2022-10-31T09:06:00;15.30;;;0.73;;
45836;SDS011;31548;51.420;-0.040;2022-10-31T09:08:30;9.70;;;0.73;;
45836;SDS011;31548;51.420;-0.040;2022-10-31T09:11:00;8.50;;;0.70;;
45836;SDS011;31548;51.420;-0.040;2022-10-31T09:13:47;10.60;;;0.80;;
45836;SDS011;31548;51.420;-0.040;2022-10-31T09:16:15;7.43;;;0.70;;
45836;SDS011;31548;51.420;-0.040;2022-10-31T09:18:43;8.50;;;0.60;;
45836;SDS011;31548;51.420;-0.040;2022-10-31T09:21:14;5.28;;;0.60;;
45836;SDS011;31548;51.420;-0.040;2022-10-31T09:23:43;7.50;;;0.70;;
45836;SDS011;31548;51.420;-0.040;2022-10-31T09:26:10;8.68;;;0.70;;
45836;SDS011;31548;51.420;-0.040;2022-10-31T09:29:01;11.88;;;0.55;;
45836;SDS011;31548;51.420;-0.040;2022-10-31T09:31:30;12.20;;;0.80;;
45836;SDS011;31548;51.420;-0.040;2022-10-31T09:34:36;7.68;;;0.60;;
45836;SDS011;31548;51.420;-0.040;2022-10-31T09:37:08;8.00;;;0.60;;
45836;SDS011;31548;51.420;-0.040;2022-10-31T09:39:35;9.07;;;0.40;;
45836;SDS011;31548;51.420;-0.040;2022-10-31T09:45:11;6.78;;;0.70;;
45836;SDS011;31548;51.420;-0.040;2022-10-31T09:54:17;14.88;;;1.20;;
45836;SDS011;31548;51.420;-0.040;2022-10-31T09:57:05;4.63;;;0.85;;
45836;SDS011;31548;51.420;-0.040;2022-10-31T09:59:39;4.13;;;0.50;;
45836;SDS011;31548;51.420;-0.040;2022-10-31T10:05:18;5.90;;;0.75;;
45836;SDS011;31548;51.420;-0.040;2022-10-31T10:08:00;4.80;;;0.55;;
45836;SDS011;31548;51.420;-0.040;2022-10-31T10:22:38;12.07;;;1.85;;
45836;SDS011;31548;51.420;-0.040;2022-10-31T10:28:02;9.95;;;1.50;;
45836;SDS011;31548;51.420;-0.040;2022-10-31T10:30:50;12.07;;;1.77;;
45836;SDS011;31548;51.420;-0.040;2022-10-31T10:33:33;11.10;;;1.40;;
45836;SDS011;31548;51.420;-0.040;2022-10-31T10:36:26;18.58;;;1.50;;
45836;SDS011;31548;51.420;-0.040;2022-10-31T10:41:47;6.57;;;0.63;;
45836;SDS011;31548;51.420;-0.040;2022-10-31T10:44:36;9.68;;;0.90;;
45836;SDS011;31548;51.420;-0.040;2022-10-31T10:47:25;5.18;;;0.55;;
45836;SDS011;31548;51.420;-0.040;2022-10-31T10:50:17;10.05;;;0.70;;
45836;SDS011;31548;51.420;-0.040;2022-10-31T10:58:42;7.60;;;0.80;;
45836;SDS011;31548;51.420;-0.040;2022-10-31T11:01:12;6.10;;;0.50;;
45836;SDS011;31548;51.420;-0.040;2022-10-31T11:03:45;2.93;;;0.40;;
45836;SDS011;31548;51.420;-0.040;2022-10-31T11:06:21;5.68;;;0.90;;
45836;SDS011;31548;51.420;-0.040;2022-10-31T11:08:52;9.15;;;0.73;;
45836;SDS011;31548;51.420;-0.040;2022-10-31T11:11:23;9.30;;;0.50;;
45836;SDS011;31548;51.420;-0.040;2022-10-31T11:14:11;6.80;;;0.80;;
45836;SDS011;31548;51.420;-0.040;2022-10-31T11:16:45;8.35;;;1.00;;
45836;SDS011;31548;51.420;-0.040;2022-10-31T11:19:21;4.55;;;0.47;;
45836;SDS011;31548;51.420;-0.040;2022-10-31T11:21:53;6.82;;;0.40;;
45836;SDS011;31548;51.420;-0.040;2022-10-31T11:24:35;4.35;;;0.68;;
45836;SDS011;31548;51.420;-0.040;2022-10-31T11:27:24;7.47;;;0.60;;
45836;SDS011;31548;51.420;-0.040;2022-10-31T11:29:53;7.32;;;0.50;;
45836;SDS011;31548;51.420;-0.040;2022-10-31T11:32:31;12.05;;;0.70;;
45836;SDS011;31548;51.420;-0.040;2022-10-31T11:35:00;7.88;;;0.50;;
45836;SDS011;31548;51.420;-0.040;2022-10-31T11:37:35;5.70;;;1.10;;
45836;SDS011;31548;51.420;-0.040;2022-10-31T11:40:16;2.83;;;0.40;;
45836;SDS011;31548;51.420;-0.040;2022-10-31T11:42:47;2.92;;;0.85;;
45836;SDS011;31548;51.420;-0.040;2022-10-31T11:47:57;5.05;;;0.40;;
45836;SDS011;31548;51.420;-0.040;2022-10-31T11:50:39;3.75;;;0.35;;
45836;SDS011;31548;51.420;-0.040;2022-10-31T11:53:13;3.20;;;0.50;;
45836;SDS011;31548;51.420;-0.040;2022-10-31T11:55:43;4.30;;;0.52;;
45836;SDS011;31548;51.420;-0.040;2022-10-31T11:58:25;10.25;;;1.05;;
45836;SDS011;31548;51.420;-0.040;2022-10-31T12:00:54;6.55;;;0.40;;
45836;SDS011;31548;51.420;-0.040;2022-10-31T12:06:33;5.88;;;0.93;;
45836;SDS011;31548;51.420;-0.040;2022-10-31T12:08:45;2.13;;;0.40;;
45836;SDS011;31548;51.420;-0.040;2022-10-31T12:14:11;7.18;;;0.40;;
45836;SDS011;31548;51.420;-0.040;2022-10-31T12:17:03;6.38;;;0.82;;
45836;SDS011;31548;51.420;-0.040;2022-10-31T12:20:00;3.83;;;0.93;;
45836;SDS011;31548;51.420;-0.040;2022-10-31T12:30:49;4.78;;;0.35;;
45836;SDS011;31548;51.420;-0.040;2022-10-31T12:41:58;7.75;;;0.43;;
45836;SDS011;31548;51.420;-0.040;2022-10-31T12:50:31;2.75;;;0.30;;
45836;SDS011;31548;51.420;-0.040;2022-10-31T12:58:58;1.38;;;0.30;;
45836;SDS011;31548;51.420;-0.040;2022-10-31T13:01:48;7.03;;;0.40;;
45836;SDS011;31548;51.420;-0.040;2022-10-31T13:07:02;3.45;;;0.30;;
45836;SDS011;31548;51.420;-0.040;2022-10-31T13:10:13;2.65;;;0.30;;
45836;SDS011;31548;51.420;-0.040;2022-10-31T13:12:49;2.05;;;0.20;;
45836;SDS011;31548;51.420;-0.040;2022-10-31T13:15:22;3.15;;;0.30;;
45836;SDS011;31548;51.420;-0.040;2022-10-31T13:17:55;4.55;;;0.30;;
45836;SDS011;31548;51.420;-0.040;2022-10-31T13:20:30;1.52;;;0.30;;
45836;SDS011;31548;51.420;-0.040;2022-10-31T13:23:05;6.65;;;0.40;;
45836;SDS011;31548;51.420;-0.040;2022-10-31T13:26:03;5.88;;;0.40;;
45836;SDS011;31548;51.420;-0.040;2022-10-31T13:29:00;4.53;;;0.30;;
45836;SDS011;31548;51.420;-0.040;2022-10-31T13:31:39;2.90;;;0.40;;
45836;SDS011;31548;51.420;-0.040;2022-10-31T13:36:59;2.28;;;0.43;;
45836;SDS011;31548;51.420;-0.040;2022-10-31T13:39:39;1.65;;;0.38;;
45836;SDS011;31548;51.420;-0.040;2022-10-31T13:45:51;3.78;;;0.50;;
45836;SDS011;31548;51.420;-0.040;2022-10-31T13:48:37;3.83;;;0.50;;
45836;SDS011;31548;51.420;-0.040;2022-10-31T13:51:10;5.90;;;0.50;;
45836;SDS011;31548;51.420;-0.040;2022-10-31T13:56:19;5.47;;;0.60;;
45836;SDS011;31548;51.420;-0.040;2022-10-31T13:59:02;4.38;;;0.40;;
45836;SDS011;31548;51.420;-0.040;2022-10-31T14:01:48;2.63;;;0.40;;
45836;SDS011;31548;51.420;-0.040;2022-10-31T14:07:04;1.25;;;0.40;;
45836;SDS011;31548;51.420;-0.040;2022-10-31T14:15:14;0.77;;;0.32;;
45836;SDS011;31548;51.420;-0.040;2022-10-31T14:20:34;2.80;;;0.30;;
45836;SDS011;31548;51.420;-0.040;2022-10-31T14:26:08;1.63;;;0.22;;
45836;SDS011;31548;51.420;-0.040;2022-10-31T14:28:46;7.22;;;0.50;;
45836;SDS011;31548;51.420;-0.040;2022-10-31T14:34:22;3.55;;;0.90;;
45836;SDS011;31548;51.420;-0.040;2022-10-31T14:45:05;2.97;;;0.43;;
45836;SDS011;31548;51.420;-0.040;2022-10-31T14:50:41;1.63;;;0.38;;
45836;SDS011;31548;51.420;-0.040;2022-10-31T14:53:14;2.05;;;0.50;;
45836;SDS011;31548;51.420;-0.040;2022-10-31T14:55:50;1.83;;;0.40;;
45836;SDS011;31548;51.420;-0.040;2022-10-31T15:01:04;3.17;;;0.43;;
45836;SDS011;31548;51.420;-0.040;2022-10-31T15:03:34;5.28;;;0.30;;
45836;SDS011;31548;51.420;-0.040;2022-10-31T15:06:23;1.55;;;0.22;;
45836;SDS011;31548;51.420;-0.040;2022-10-31T15:08:53;2.58;;;0.50;;
45836;SDS011;31548;51.420;-0.040;2022-10-31T15:11:25;2.35;;;0.30;;
45836;SDS011;31548;51.420;-0.040;2022-10-31T15:13:55;5.20;;;0.80;;
45836;SDS011;31548;51.420;-0.040;2022-10-31T15:16:24;1.52;;;0.40;;
45836;SDS011;31548;51.420;-0.040;2022-10-31T15:19:04;5.32;;;0.60;;
45836;SDS011;31548;51.420;-0.040;2022-10-31T15:21:33;2.03;;;0.40;;
45836;SDS011;31548;51.420;-0.040;2022-10-31T15:24:03;5.65;;;0.68;;
45836;SDS011;31548;51.420;-0.040;2022-10-31T15:26:40;7.60;;;0.40;;
45836;SDS011;31548;51.420;-0.040;2022-10-31T15:29:14;1.55;;;0.40;;
45836;SDS011;31548;51.420;-0.040;2022-10-31T15:31:50;2.88;;;0.50;;
45836;SDS011;31548;51.420;-0.040;2022-10-31T15:37:00;7.28;;;0.70;;
45836;SDS011;31548;51.420;-0.040;2022-10-31T15:39:28;2.67;;;0.60;;
45836;SDS011;31548;51.420;-0.040;2022-10-31T15:41:58;8.40;;;0.80;;
45836;SDS011;31548;51.420;-0.040;2022-10-31T15:44:28;4.82;;;0.70;;
45836;SDS011;31548;51.420;-0.040;2022-10-31T15:47:01;5.88;;;0.80;;
45836;SDS011;31548;51.420;-0.040;2022-10-31T15:49:32;3.75;;;0.70;;
45836;SDS011;31548;51.420;-0.040;2022-10-31T15:52:17;2.80;;;0.47;;
45836;SDS011;31548;51.420;-0.040;2022-10-31T15:55:03;4.88;;;0.52;;
45836;SDS011;31548;51.420;-0.040;2022-10-31T15:57:49;1.25;;;0.30;;
45836;SDS011;31548;51.420;-0.040;2022-10-31T16:00:23;4.32;;;0.50;;
45836;SDS011;31548;51.420;-0.040;2022-10-31T16:05:35;2.80;;;0.50;;
45836;SDS011;31548;51.420;-0.040;2022-10-31T16:08:24;5.25;;;0.90;;
45836;SDS011;31548;51.420;-0.040;2022-10-31T16:11:01;3.00;;;0.52;;
45836;SDS011;31548;51.420;-0.040;2022-10-31T16:16:54;7.68;;;0.73;;
45836;SDS011;31548;51.420;-0.040;2022-10-31T16:19:26;3.42;;;0.50;;
45836;SDS011;31548;51.420;-0.040;2022-10-31T16:22:06;12.77;;;0.93;;
45836;SDS011;31548;51.420;-0.040;2022-10-31T16:24:44;3.60;;;0.60;;
45836;SDS011;31548;51.420;-0.040;2022-10-31T16:27:25;3.13;;;0.57;;
45836;SDS011;31548;51.420;-0.040;2022-10-31T16:29:56;4.28;;;0.55;;
45836;SDS011;31548;51.420;-0.040;2022-10-31T16:35:17;4.20;;;0.60;;
45836;SDS011;31548;51.420;-0.040;2022-10-31T16:37:55;6.95;;;0.80;;
45836;SDS011;31548;51.420;-0.040;2022-10-31T16:40:23;3.83;;;0.50;;
45836;SDS011;31548;51.420;-0.040;2022-10-31T16:42:51;7.97;;;0.73;;
45836;SDS011;31548;51.420;-0.040;2022-10-31T16:45:20;3.47;;;0.70;;
45836;SDS011;31548;51.420;-0.040;2022-10-31T16:47:50;6.13;;;0.70;;
45836;SDS011;31548;51.420;-0.040;2022-10-31T16:50:22;7.25;;;0.55;;
45836;SDS011;31548;51.420;-0.040;2022-10-31T16:52:51;5.35;;;0.95;;
45836;SDS011;31548;51.420;-0.040;2022-10-31T16:56:14;4.38;;;0.90;;
45836;SDS011;31548;51.420;-0.040;2022-10-31T16:58:39;1.63;;;0.85;;
45836;SDS011;31548;51.420;-0.040;2022-10-31T17:01:07;5.72;;;0.80;;
45836;SDS011;31548;51.420;-0.040;2022-10-31T17:03:35;6.38;;;1.00;;
45836;SDS011;31548;51.420;-0.040;2022-10-31T17:06:03;6.25;;;0.70;;
45836;SDS011;31548;51.420;-0.040;2022-10-31T17:08:31;5.07;;;0.77;;
45836;SDS011;31548;51.420;-0.040;2022-10-31T17:10:59;6.72;;;1.10;;
45836;SDS011;31548;51.420;-0.040;2022-10-31T17:13:28;2.35;;;0.60;;
45836;SDS011;31548;51.420;-0.040;2022-10-31T17:15:59;3.10;;;0.80;;
45836;SDS011;31548;51.420;-0.040;2022-10-31T17:18:28;6.85;;;0.60;;
45836;SDS011;31548;51.420;-0.040;2022-10-31T17:20:57;7.50;;;0.95;;
45836;SDS011;31548;51.420;-0.040;2022-10-31T17:23:27;2.33;;;0.77;;
45836;SDS011;31548;51.420;-0.040;2022-10-31T17:25:55;5.32;;;0.80;;
45836;SDS011;31548;51.420;-0.040;2022-10-31T17:28:23;2.03;;;0.70;;
45836;SDS011;31548;51.420;-0.040;2022-10-31T17:30:52;4.50;;;0.82;;
45836;SDS011;31548;51.420;-0.040;2022-10-31T17:33:21;8.60;;;2.17;;
45836;SDS011;31548;51.420;-0.040;2022-10-31T17:35:49;6.95;;;2.05;;
45836;SDS011;31548;51.420;-0.040;2022-10-31T17:38:17;4.10;;;1.63;;
45836;SDS011;31548;51.420;-0.040;2022-10-31T17:40:45;8.02;;;1.92;;
45836;SDS011;31548;51.420;-0.040;2022-10-31T17:43:13;7.47;;;2.00;;
45836;SDS011;31548;51.420;-0.040;2022-10-31T17:45:41;4.35;;;1.38;;
45836;SDS011;31548;51.420;-0.040;2022-10-31T17:48:09;6.70;;;2.33;;
45836;SDS011;31548;51.420;-0.040;2022-10-31T17:50:38;10.05;;;2.42;;
45836;SDS011;31548;51.420;-0.040;2022-10-31T17:53:06;5.85;;;1.60;;
45836;SDS011;31548;51.420;-0.040;2022-10-31T17:55:34;9.25;;;2.55;;
45836;SDS011;31548;51.420;-0.040;2022-10-31T17:58:03;6.53;;;2.42;;
45836;SDS011;31548;51.420;-0.040;2022-10-31T18:00:31;7.65;;;2.90;;
45836;SDS011;31548;51.420;-0.040;2022-10-31T18:03:00;7.88;;;3.58;;
45836;SDS011;31548;51.420;-0.040;2022-10-31T18:05:30;5.78;;;2.28;;